Time;durP1;ratioP1;P1;durP2;ratioP2;P2;SDS_P1;SDS_P2;PMS_P1;PMS_P2;Temp;Humidity;BMP_temperature;BMP_pressure;BME280_temperature;BME280_humidity;BME280_pressure;Samples;Min_cycle;Max_cycle;Signal;HPM_P1;HPM_P2
2021/05/19 00:01:59;;;;;;;1.40;0.43;;;;;;;10.50;75.29;100307.25;6143909;23;20006;-75
2021/05/19 00:04:25;;;;;;;0.47;0.32;;;;;;;10.51;75.00;100312.44;6117901;23;20017;-74
2021/05/19 00:06:50;;;;;;;0.25;0.20;;;;;;;10.50;75.13;100305.34;6091787;23;20006;-75
2021/05/19 00:09:16;;;;;;;0.30;0.25;;;;;;;10.51;75.20;100312.44;6065332;23;20028;-76
2021/05/19 00:11:45;;;;;;;1.73;0.40;;;;;;;10.51;74.84;100306.97;6110815;23;20006;-74
2021/05/19 00:14:12;;;;;;;0.52;0.40;;;;;;;10.53;75.28;100302.06;6136457;23;20375;-74
2021/05/19 00:16:38;;;;;;;0.25;0.15;;;;;;;10.57;74.54;100308.66;6135785;23;20046;-75
2021/05/19 00:19:04;;;;;;;1.55;0.10;;;;;;;10.54;74.40;100290.06;6136120;23;20001;-73
2021/05/19 00:21:29;;;;;;;0.17;0.15;;;;;;;10.56;74.71;100282.41;6113550;23;20005;-74
2021/05/19 00:23:55;;;;;;;0.20;0.20;;;;;;;10.63;74.64;100288.44;6114274;23;20001;-74
2021/05/19 00:26:21;;;;;;;0.60;0.52;;;;;;;10.63;74.61;100299.38;6114499;23;20096;-76
2021/05/19 00:28:51;;;;;;;0.40;0.17;;;;;;;10.60;74.43;100278.03;6115529;23;20014;-74
2021/05/19 00:31:19;;;;;;;0.10;0.10;;;;;;;10.71;74.75;100294.47;6092123;23;20026;-74
2021/05/19 00:33:45;;;;;;;0.47;0.17;;;;;;;10.72;74.47;100291.47;6142075;23;20024;-73
2021/05/19 00:36:11;;;;;;;0.50;0.10;;;;;;;10.74;74.11;100291.19;6091533;23;20014;-73
2021/05/19 00:38:36;;;;;;;0.20;0.15;;;;;;;10.76;74.29;100291.72;6117193;23;20084;-73
2021/05/19 00:41:02;;;;;;;0.32;0.10;;;;;;;10.71;74.46;100278.06;6117013;23;20041;-75
2021/05/19 00:43:28;;;;;;;0.65;0.10;;;;;;;10.69;74.35;100280.22;6114666;23;20017;-73
2021/05/19 00:45:53;;;;;;;0.35;0.20;;;;;;;10.75;74.04;100290.09;6089779;23;20097;-73
2021/05/19 00:48:20;;;;;;;0.10;0.10;;;;;;;10.77;74.08;100287.91;6141710;23;20002;-74
2021/05/19 00:50:49;;;;;;;0.10;0.10;;;;;;;10.80;74.03;100285.44;6117139;23;20030;-78
2021/05/19 00:53:20;;;;;;;0.35;0.20;;;;;;;10.75;74.45;100274.50;6145891;23;20025;-78
2021/05/19 00:55:48;;;;;;;2.47;0.10;;;;;;;10.73;73.81;100273.13;6118182;23;20058;-77
2021/05/19 00:58:17;;;;;;;0.32;0.17;;;;;;;10.77;73.82;100279.69;6120509;23;20010;-78
2021/05/19 01:00:48;;;;;;;1.35;0.32;;;;;;;10.67;73.65;100266.00;6095701;23;20014;-77
2021/05/19 01:03:16;;;;;;;0.50;0.30;;;;;;;10.74;73.59;100293.91;6120174;23;20017;-78
2021/05/19 01:05:59;;;;;;;0.38;0.15;;;;;;;10.68;74.13;100281.34;6142263;23;20010;-76
2021/05/19 01:11:38;;;;;;;0.22;0.10;;;;;;;10.56;73.80;100287.06;6149850;23;20024;-77
2021/05/19 01:14:06;;;;;;;0.25;0.20;;;;;;;10.37;73.86;100267.59;6105006;23;20014;-76
2021/05/19 01:16:32;;;;;;;1.33;0.20;;;;;;;10.40;74.10;100289.72;6176770;23;20496;-76
2021/05/19 01:18:58;;;;;;;1.63;0.32;;;;;;;10.23;74.30;100273.50;6152336;23;20005;-77
2021/05/19 01:21:25;;;;;;;0.63;0.30;;;;;;;10.24;73.94;100286.06;6127436;23;20112;-76
2021/05/19 01:23:54;;;;;;;0.25;0.10;;;;;;;10.14;73.96;100280.56;6151103;23;20425;-78
2021/05/19 01:26:23;;;;;;;0.52;0.17;;;;;;;10.07;73.73;100277.25;6127630;23;20064;-77
2021/05/19 01:28:49;;;;;;;0.35;0.10;;;;;;;10.01;74.26;100275.59;6151265;23;20005;-77
2021/05/19 01:31:15;;;;;;;1.13;0.30;;;;;;;10.04;74.42;100286.00;6151277;23;20329;-76
2021/05/19 01:33:41;;;;;;;0.30;0.22;;;;;;;9.95;74.07;100281.03;6176980;23;20032;-75
2021/05/19 01:36:07;;;;;;;0.35;0.05;;;;;;;9.92;74.80;100278.81;6126018;23;20013;-74
2021/05/19 01:38:34;;;;;;;0.38;0.10;;;;;;;9.87;74.45;100281.53;6147157;23;20002;-76
2021/05/19 01:41:00;;;;;;;0.10;0.10;;;;;;;9.77;74.49;100267.84;6127166;23;20033;-77
2021/05/19 01:43:33;;;;;;;0.88;0.22;;;;;;;9.79;75.06;100273.84;6175946;23;20006;-76
2021/05/19 01:46:02;;;;;;;0.20;0.20;;;;;;;9.75;75.06;100267.25;6172288;23;20002;-76
2021/05/19 01:48:30;;;;;;;0.10;0.10;;;;;;;9.85;74.59;100272.78;6144579;23;20009;-78
2021/05/19 01:50:57;;;;;;;1.70;0.32;;;;;;;9.76;74.53;100260.72;6171247;23;20057;-77
2021/05/19 01:53:26;;;;;;;0.30;0.10;;;;;;;9.82;75.33;100270.56;6141938;23;20036;-77
2021/05/19 01:55:55;;;;;;;0.10;0.10;;;;;;;9.79;75.03;100269.19;6172477;23;20001;-77
2021/05/19 01:58:21;;;;;;;4.18;0.22;;;;;;;9.74;75.21;100265.63;6145215;23;20033;-80
2021/05/19 02:01:10;;;;;;;0.85;0.45;;;;;;;9.79;75.66;100279.31;6122164;23;20016;-78
2021/05/19 02:03:35;;;;;;;0.20;0.17;;;;;;;9.75;76.14;100273.56;6169356;23;20021;-79
2021/05/19 02:06:03;;;;;;;0.68;0.20;;;;;;;9.63;75.52;100269.38;6172038;23;20016;-77
2021/05/19 02:08:31;;;;;;;0.20;0.10;;;;;;;9.58;75.75;100262.00;6144195;23;20024;-78
2021/05/19 02:10:57;;;;;;;0.10;0.10;;;;;;;9.63;75.69;100263.91;6140370;23;19997;-78
2021/05/19 02:13:23;;;;;;;0.17;0.00;;;;;;;9.59;76.29;100264.44;6109864;23;20082;-79
2021/05/19 02:15:48;;;;;;;0.10;0.10;;;;;;;9.56;76.52;100270.44;6109387;23;20014;-79
2021/05/19 02:18:17;;;;;;;0.10;0.10;;;;;;;9.56;76.01;100275.06;6135482;23;20056;-79
2021/05/19 02:20:42;;;;;;;0.05;0.05;;;;;;;9.51;76.72;100267.66;6135604;23;19997;-78
2021/05/19 02:23:18;;;;;;;0.43;0.10;;;;;;;9.46;77.10;100269.53;6112123;23;20014;-78
2021/05/19 02:25:44;;;;;;;1.05;0.25;;;;;;;9.39;77.41;100264.31;6137067;23;20002;-78
2021/05/19 02:28:09;;;;;;;0.70;0.70;;;;;;;9.37;76.97;100261.81;6109618;23;20020;-75
2021/05/19 02:30:37;;;;;;;0.43;0.20;;;;;;;9.44;77.38;100270.59;6106553;23;20020;-75
2021/05/19 02:33:14;;;;;;;0.20;0.20;;;;;;;9.35;77.44;100263.19;6135492;23;20378;-75
2021/05/19 02:35:42;;;;;;;0.47;0.20;;;;;;;9.32;77.03;100258.25;6132230;23;20032;-75
2021/05/19 02:38:07;;;;;;;0.25;0.25;;;;;;;9.38;77.06;100262.66;6135042;23;20006;-73
2021/05/19 02:40:35;;;;;;;0.85;0.20;;;;;;;9.40;77.83;100261.31;6133692;23;20692;-75
2021/05/19 02:43:01;;;;;;;1.55;0.20;;;;;;;9.40;77.90;100265.94;6104706;23;20010;-75
2021/05/19 02:45:31;;;;;;;0.40;0.30;;;;;;;9.36;77.49;100267.53;6136647;23;20097;-76
2021/05/19 02:47:59;;;;;;;0.00;0.00;;;;;;;9.25;78.05;100253.81;6108223;23;20014;-75
2021/05/19 02:50:24;;;;;;;1.02;0.13;;;;;;;9.36;77.55;100278.47;6132299;23;20006;-75
2021/05/19 02:52:50;;;;;;;0.50;0.40;;;;;;;9.36;78.15;100273.84;6135888;23;20033;-75
2021/05/19 02:55:15;;;;;;;0.50;0.10;;;;;;;9.32;77.75;100271.91;6136283;23;20013;-76
2021/05/19 02:57:41;;;;;;;0.20;0.20;;;;;;;9.37;78.23;100283.66;6138549;23;20036;-75
2021/05/19 03:00:07;;;;;;;0.30;0.20;;;;;;;9.38;78.13;100289.97;6140969;23;20018;-74
2021/05/19 03:02:33;;;;;;;1.25;0.10;;;;;;;9.38;77.96;100285.31;6141883;23;20017;-76
2021/05/19 03:04:58;;;;;;;0.30;0.30;;;;;;;9.33;78.56;100265.34;6141827;23;20037;-75
2021/05/19 03:07:28;;;;;;;0.63;0.17;;;;;;;9.36;77.97;100281.19;6135265;23;20005;-77
2021/05/19 03:09:53;;;;;;;0.57;0.20;;;;;;;9.34;78.69;100275.19;6129511;23;20002;-75
2021/05/19 03:12:21;;;;;;;0.22;0.22;;;;;;;9.32;78.30;100269.19;6124606;23;20376;-75
2021/05/19 03:14:46;;;;;;;0.25;0.20;;;;;;;9.31;78.63;100278.44;6101363;23;20006;-76
2021/05/19 03:17:12;;;;;;;0.10;0.10;;;;;;;9.31;78.73;100270.25;6073335;23;20310;-74
2021/05/19 03:19:37;;;;;;;0.20;0.20;;;;;;;9.39;79.00;100291.59;6077759;23;20010;-77
2021/05/19 03:22:10;;;;;;;0.28;0.20;;;;;;;9.30;78.77;100282.25;6109508;23;20460;-76
2021/05/19 03:24:38;;;;;;;0.20;0.20;;;;;;;9.25;78.97;100280.31;6080869;23;20010;-74
2021/05/19 03:27:09;;;;;;;0.20;0.20;;;;;;;9.29;78.76;100291.50;6061233;23;20085;-74
2021/05/19 03:29:34;;;;;;;0.70;0.30;;;;;;;9.28;79.12;100289.88;6103043;23;20013;-76
2021/05/19 03:32:00;;;;;;;2.40;0.38;;;;;;;9.19;79.78;100281.34;6084934;23;20090;-75
2021/05/19 03:34:26;;;;;;;3.85;0.28;;;;;;;9.22;80.13;100286.28;6135261;23;20005;-76
2021/05/19 03:36:51;;;;;;;0.28;0.28;;;;;;;9.25;79.54;100293.94;6124530;23;20006;-75
2021/05/19 03:39:16;;;;;;;0.50;0.30;;;;;;;9.20;79.69;100292.00;6109759;23;20021;-75
2021/05/19 03:41:42;;;;;;;0.30;0.20;;;;;;;9.21;80.21;100307.28;6078599;23;20010;-74
2021/05/19 03:44:08;;;;;;;0.28;0.28;;;;;;;9.22;79.93;100306.19;6130912;23;20061;-75
2021/05/19 03:46:34;;;;;;;0.30;0.15;;;;;;;9.20;79.93;100308.38;6101125;23;20065;-75
2021/05/19 03:49:01;;;;;;;0.43;0.43;;;;;;;9.19;80.69;100301.25;6129551;23;20021;-75
2021/05/19 03:51:28;;;;;;;0.43;0.30;;;;;;;9.17;80.64;100306.16;6127152;23;20086;-74
2021/05/19 03:53:54;;;;;;;0.40;0.20;;;;;;;9.18;80.85;100299.59;6103190;23;20006;-74
2021/05/19 03:56:20;;;;;;;0.20;0.20;;;;;;;9.24;80.37;100298.59;6128012;23;20064;-74
2021/05/19 03:58:46;;;;;;;1.13;0.30;;;;;;;9.29;79.75;100308.72;6130125;23;20062;-72
2021/05/19 04:01:12;;;;;;;0.38;0.28;;;;;;;9.34;80.25;100316.13;6131777;23;20091;-75
2021/05/19 04:03:38;;;;;;;1.75;0.38;;;;;;;9.29;80.12;100307.88;6106215;23;20014;-74
2021/05/19 04:06:03;;;;;;;0.10;0.10;;;;;;;9.35;80.57;100312.31;6105292;23;20002;-74
2021/05/19 04:08:36;;;;;;;0.70;0.30;;;;;;;9.37;80.14;100318.31;6129623;23;20063;-74
2021/05/19 04:11:02;;;;;;;1.17;0.63;;;;;;;9.29;80.48;100316.06;6128445;23;20002;-74
2021/05/19 04:13:28;;;;;;;1.52;0.20;;;;;;;9.33;80.45;100319.91;6102290;23;20021;-74
2021/05/19 04:15:54;;;;;;;0.47;0.40;;;;;;;9.32;80.17;100327.28;6132672;23;20018;-73
2021/05/19 04:18:21;;;;;;;0.85;0.57;;;;;;;9.31;81.23;100327.56;6125360;23;20013;-74
2021/05/19 04:20:47;;;;;;;2.80;0.60;;;;;;;9.29;81.34;100326.97;6124898;23;20149;-74
2021/05/19 04:23:13;;;;;;;0.40;0.40;;;;;;;9.31;80.55;100330.28;6129062;23;20428;-75
2021/05/19 04:25:40;;;;;;;0.77;0.50;;;;;;;9.24;80.38;100323.16;6131083;23;20077;-74
2021/05/19 04:28:06;;;;;;;1.40;0.75;;;;;;;9.33;80.69;100333.56;6132904;23;20006;-75
2021/05/19 04:30:32;;;;;;;2.58;0.30;;;;;;;9.33;80.32;100336.28;6128871;23;20060;-75
2021/05/19 04:32:57;;;;;;;1.05;0.40;;;;;;;9.43;81.01;100342.69;6132375;23;20180;-75
2021/05/19 04:35:26;;;;;;;0.40;0.40;;;;;;;9.47;80.66;100345.69;6132433;23;20010;-75
2021/05/19 04:37:54;;;;;;;1.85;0.90;;;;;;;9.45;80.84;100334.22;6134264;23;20016;-73
2021/05/19 04:40:22;;;;;;;0.65;0.50;;;;;;;9.53;80.04;100343.84;6136593;23;20025;-78
2021/05/19 04:42:48;;;;;;;0.82;0.50;;;;;;;9.55;80.12;100349.84;6135062;23;20010;-79
2021/05/19 04:45:14;;;;;;;0.70;0.70;;;;;;;9.55;80.69;100356.16;6135165;23;20085;-77
2021/05/19 04:47:42;;;;;;;1.63;0.88;;;;;;;9.42;80.51;100338.28;6133115;23;20033;-76
2021/05/19 04:50:18;;;;;;;1.08;0.70;;;;;;;9.58;80.85;100352.88;6107313;23;20010;-76
2021/05/19 04:52:52;;;;;;;0.85;0.82;;;;;;;9.61;80.43;100363.28;6130914;23;20013;-77
2021/05/19 04:55:18;;;;;;;0.68;0.68;;;;;;;9.56;80.20;100355.06;6129460;23;20006;-76
2021/05/19 04:57:45;;;;;;;3.13;0.90;;;;;;;9.59;80.75;100356.44;6130317;23;20017;-76
2021/05/19 05:00:11;;;;;;;0.93;0.93;;;;;;;9.68;80.49;100365.81;6127599;23;20017;-77
2021/05/19 05:02:38;;;;;;;1.15;0.85;;;;;;;9.70;79.97;100368.28;6131092;23;20080;-78
2021/05/19 05:05:08;;;;;;;1.23;1.10;;;;;;;9.75;80.10;100376.50;6128362;23;20456;-77
2021/05/19 05:07:42;;;;;;;1.20;1.20;;;;;;;9.75;80.55;100376.50;6127970;23;20009;-77
2021/05/19 05:10:13;;;;;;;1.20;1.10;;;;;;;9.75;80.22;100371.03;6130524;23;20013;-77
2021/05/19 05:12:39;;;;;;;1.30;1.20;;;;;;;9.82;80.17;100382.56;6126271;23;20013;-77
2021/05/19 05:15:14;;;;;;;1.92;1.73;;;;;;;9.79;79.80;100377.63;6157669;23;20015;-77
2021/05/19 05:17:39;;;;;;;4.43;0.68;;;;;;;9.94;79.55;100391.41;6110915;23;20009;-76
2021/05/19 05:20:08;;;;;;;1.27;1.17;;;;;;;9.99;79.91;100393.34;6156725;23;20020;-77
2021/05/19 05:22:33;;;;;;;1.25;1.17;;;;;;;10.00;79.45;100394.16;6162271;23;20001;-76
2021/05/19 05:24:59;;;;;;;4.35;1.00;;;;;;;10.09;78.85;100406.22;6137983;23;20020;-76
2021/05/19 05:27:24;;;;;;;1.00;1.00;;;;;;;10.11;79.20;100409.53;6114442;23;20006;-79
2021/05/19 05:29:50;;;;;;;1.55;1.30;;;;;;;10.18;79.31;100415.59;6092338;23;20397;-77
2021/05/19 05:32:15;;;;;;;4.00;1.40;;;;;;;10.22;79.36;100408.50;6118016;23;20025;-77
2021/05/19 05:34:57;;;;;;;;;;;;;;;;;;;;;
2021/05/19 05:37:23;;;;;;;1.42;0.93;;;;;;;10.38;79.26;100414.09;6160804;23;20029;-74
2021/05/19 05:39:49;;;;;;;0.93;0.93;;;;;;;10.41;78.57;100413.53;6139552;23;20031;-74
2021/05/19 05:42:15;;;;;;;1.35;0.93;;;;;;;10.52;78.70;100430.84;6137854;23;20005;-75
2021/05/19 05:44:40;;;;;;;1.13;1.13;;;;;;;10.60;78.18;100431.16;6166150;23;20357;-75
2021/05/19 05:47:08;;;;;;;1.17;0.77;;;;;;;10.61;78.40;100427.31;6166018;23;20444;-75
2021/05/19 05:49:34;;;;;;;1.23;0.80;;;;;;;10.63;78.25;100427.91;6146422;23;20017;-74
2021/05/19 05:52:02;;;;;;;1.23;1.20;;;;;;;10.70;77.82;100435.03;6150177;23;20009;-75
2021/05/19 05:54:28;;;;;;;0.90;0.90;;;;;;;10.65;77.60;100439.38;6149133;23;20081;-75
2021/05/19 05:56:56;;;;;;;1.30;1.20;;;;;;;10.54;77.76;100415.81;6122117;23;20044;-76
2021/05/19 05:59:22;;;;;;;0.82;0.82;;;;;;;10.64;77.48;100425.97;6139657;23;20006;-75
2021/05/19 06:01:48;;;;;;;1.25;1.00;;;;;;;10.64;76.96;100429.56;6143347;23;20021;-74
2021/05/19 06:04:13;;;;;;;1.33;1.23;;;;;;;10.72;77.14;100444.63;6162641;23;20321;-75
2021/05/19 06:06:38;;;;;;;3.30;1.10;;;;;;;10.77;77.46;100452.03;6170718;23;20001;-77
2021/05/19 06:09:07;;;;;;;1.40;1.30;;;;;;;10.77;77.76;100452.03;6143010;23;20009;-75
2021/05/19 06:11:33;;;;;;;1.10;1.08;;;;;;;10.77;77.02;100446.56;6136933;23;20013;-74
2021/05/19 06:13:58;;;;;;;3.85;1.48;;;;;;;10.77;77.14;100454.75;6115293;23;20103;-76
2021/05/19 06:16:24;;;;;;;1.10;1.08;;;;;;;10.76;77.01;100444.91;6143568;23;20332;-76
2021/05/19 06:18:50;;;;;;;0.90;0.90;;;;;;;10.84;77.31;100452.59;6115898;23;20090;-77
2021/05/19 06:21:18;;;;;;;2.30;1.45;;;;;;;10.88;77.18;100453.72;6143602;23;20416;-80
2021/05/19 06:23:47;;;;;;;3.25;0.95;;;;;;;10.98;77.18;100463.84;6140340;23;20013;-77
2021/05/19 06:36:13;;;;;;;2.45;0.90;;;;;;;11.39;76.58;100485.06;6131133;23;20005;-76
2021/05/19 06:38:39;;;;;;;1.95;1.20;;;;;;;11.30;75.67;100477.41;6133567;23;20002;-78
2021/05/19 06:41:24;;;;;;;1.23;0.80;;;;;;;11.48;76.21;100494.41;6161186;23;20044;-78
2021/05/19 06:44:00;;;;;;;1.17;0.80;;;;;;;11.62;75.37;100503.75;6131158;23;20002;-76
2021/05/19 06:46:49;;;;;;;1.23;0.82;;;;;;;11.69;75.45;100501.56;6162070;23;20013;-78
2021/05/19 06:49:15;;;;;;;0.95;0.57;;;;;;;11.75;74.56;100505.13;6108775;23;20016;-76
2021/05/19 06:51:42;;;;;;;2.05;0.55;;;;;;;11.87;74.51;100518.56;6134542;23;20001;-75
2021/05/19 06:54:11;;;;;;;2.95;0.88;;;;;;;11.84;74.32;100502.69;6134481;23;20017;-75
2021/05/19 06:56:45;;;;;;;0.57;0.40;;;;;;;12.04;74.11;100527.38;6161662;23;20080;-76
2021/05/19 06:59:21;;;;;;;3.10;0.50;;;;;;;12.05;73.57;100525.47;6133207;23;19997;-77
2021/05/19 07:01:49;;;;;;;1.15;0.40;;;;;;;12.13;72.83;100532.31;6124868;23;20794;-78
2021/05/19 07:04:17;;;;;;;1.10;0.40;;;;;;;12.23;72.61;100537.81;6157823;23;20009;-79
2021/05/19 07:06:43;;;;;;;0.30;0.30;;;;;;;12.36;71.91;100548.22;6158595;23;20005;-75
2021/05/19 07:09:10;;;;;;;2.70;0.63;;;;;;;12.38;71.16;100539.72;6160888;23;20009;-78
2021/05/19 07:11:36;;;;;;;5.05;0.77;;;;;;;12.54;71.38;100544.13;6133862;23;20049;-77
2021/05/19 07:14:03;;;;;;;1.60;0.52;;;;;;;12.60;71.31;100546.84;6130894;23;20021;-77
2021/05/19 07:16:33;;;;;;;0.77;0.30;;;;;;;12.68;71.06;100555.31;6132822;23;20013;-76
2021/05/19 07:18:58;;;;;;;0.95;0.30;;;;;;;12.79;70.33;100547.06;6134035;23;20013;-77
2021/05/19 07:21:24;;;;;;;2.72;0.38;;;;;;;12.93;69.79;100551.69;6134608;23;20041;-76
2021/05/19 07:23:53;;;;;;;0.60;0.30;;;;;;;13.12;70.39;100553.03;6158955;23;20065;-76
2021/05/19 07:26:39;;;;;;;1.20;0.32;;;;;;;13.28;69.22;100562.84;6155011;23;20005;-75
2021/05/19 07:29:05;;;;;;;0.40;0.40;;;;;;;13.34;68.74;100553.50;6107471;23;20064;-76
2021/05/19 07:31:31;;;;;;;2.55;0.10;;;;;;;13.47;68.87;100548.53;6109937;23;20001;-76
2021/05/19 07:33:57;;;;;;;0.65;0.20;;;;;;;13.70;68.64;100561.59;6133800;23;20009;-76
2021/05/19 07:36:27;;;;;;;0.22;0.20;;;;;;;13.87;68.21;100557.63;6134007;23;20099;-75
2021/05/19 07:38:54;;;;;;;0.13;0.13;;;;;;;14.24;68.77;100578.28;6159853;23;20023;-75
2021/05/19 07:41:24;;;;;;;0.63;0.22;;;;;;;14.30;66.41;100566.13;6131469;23;20072;-76
2021/05/19 07:43:50;;;;;;;1.15;0.20;;;;;;;14.65;67.53;100588.97;6135394;23;20692;-75
2021/05/19 07:46:17;;;;;;;1.25;0.40;;;;;;;14.90;66.81;100584.31;6134233;23;20061;-74
2021/05/19 07:48:47;;;;;;;0.57;0.45;;;;;;;15.26;66.09;100575.63;6157827;23;20379;-75
2021/05/19 07:51:15;;;;;;;0.25;0.20;;;;;;;15.45;63.44;100568.25;6129386;23;20009;-75
2021/05/19 07:53:44;;;;;;;0.80;0.20;;;;;;;15.62;63.88;100580.72;6120735;23;20064;-75
2021/05/19 07:56:23;;;;;;;0.43;0.28;;;;;;;15.59;63.31;100573.84;6099089;23;20006;-75
2021/05/19 07:59:06;;;;;;;;;;;;;;;;;;;;;
2021/05/19 08:05:13;;;;;;;0.55;0.30;;;;;;;15.14;61.04;100585.16;6066040;23;20023;-75
2021/05/19 08:07:49;;;;;;;0.95;0.40;;;;;;;15.04;61.35;100603.72;6122238;23;20068;-76
2021/05/19 08:10:15;;;;;;;0.28;0.10;;;;;;;14.64;61.69;100581.81;6132155;23;20605;-73
2021/05/19 08:12:40;;;;;;;2.03;0.28;;;;;;;14.67;62.21;100603.25;6129302;23;20016;-74
2021/05/19 08:15:07;;;;;;;0.47;0.20;;;;;;;14.78;63.00;100615.81;6107397;23;20040;-73
2021/05/19 08:17:32;;;;;;;0.25;0.20;;;;;;;14.90;62.62;100614.59;6103025;23;20021;-73
2021/05/19 08:19:58;;;;;;;0.30;0.20;;;;;;;15.07;61.88;100620.50;6128594;23;20089;-73
2021/05/19 08:22:23;;;;;;;0.20;0.20;;;;;;;15.28;62.40;100610.06;6120635;23;20017;-73
2021/05/19 08:24:49;;;;;;;0.38;0.20;;;;;;;15.51;61.62;100605.66;6158468;23;20029;-73
2021/05/19 08:27:19;;;;;;;0.65;0.40;;;;;;;15.85;60.83;100609.38;6160502;23;20365;-75
2021/05/19 08:29:51;;;;;;;0.63;0.30;;;;;;;16.18;60.62;100613.03;6132328;23;20002;-74
2021/05/19 08:32:19;;;;;;;2.83;0.15;;;;;;;16.31;59.57;100616.16;6128144;23;20085;-74
2021/05/19 08:34:45;;;;;;;0.13;0.13;;;;;;;16.25;59.01;100617.34;6158591;23;20052;-76
2021/05/19 08:37:13;;;;;;;1.15;0.25;;;;;;;16.16;58.80;100615.25;6109702;23;20009;-73
2021/05/19 08:39:41;;;;;;;0.43;0.43;;;;;;;15.94;58.34;100615.06;6156789;23;20001;-75
2021/05/19 08:42:07;;;;;;;0.45;0.43;;;;;;;15.63;57.98;100612.69;6109217;23;20013;-74
2021/05/19 08:44:32;;;;;;;0.85;0.22;;;;;;;15.31;58.15;100605.91;6130477;23;20040;-75
2021/05/19 08:47:00;;;;;;;1.23;0.50;;;;;;;15.11;59.19;100607.78;6132269;23;20010;-74
2021/05/19 08:49:26;;;;;;;1.02;0.30;;;;;;;15.06;59.95;100621.59;6084231;23;20044;-75
2021/05/19 08:51:54;;;;;;;0.10;0.10;;;;;;;14.89;59.80;100610.19;6127037;23;20432;-75
2021/05/19 08:54:20;;;;;;;0.20;0.20;;;;;;;14.69;59.49;100616.72;6131885;23;20004;-74
2021/05/19 08:56:51;;;;;;;0.85;0.30;;;;;;;14.59;60.09;100628.63;6085697;23;20056;-75
2021/05/19 08:59:17;;;;;;;0.20;0.20;;;;;;;14.59;60.98;100631.38;6158874;23;20006;-75
2021/05/19 09:01:45;;;;;;;0.30;0.20;;;;;;;14.84;61.77;100625.66;6087021;23;20037;-75
2021/05/19 09:04:19;;;;;;;0.30;0.20;;;;;;;15.43;61.50;100631.09;6161912;23;20097;-75
2021/05/19 09:06:52;;;;;;;0.93;0.37;;;;;;;15.68;58.96;100632.72;6135757;23;20009;-75
2021/05/19 09:09:22;;;;;;;3.10;0.50;;;;;;;15.74;56.01;100646.44;6163273;23;20041;-75
2021/05/19 09:12:18;;;;;;;0.85;0.20;;;;;;;16.01;57.19;100635.63;6133156;23;20009;-75
2021/05/19 09:14:56;;;;;;;;;;;;;;;16.67;55.66;100654.22;6162247;23;20024;-74
2021/05/19 09:17:32;;;;;;;1.35;0.32;;;;;;;17.11;55.48;100655.69;6159167;23;19905;-74
2021/05/19 09:20:14;;;;;;;0.70;0.20;;;;;;;17.42;53.82;100655.94;6134051;23;20010;-75
2021/05/19 09:22:42;;;;;;;0.40;0.35;;;;;;;17.50;51.23;100653.59;6161311;23;20011;-73
2021/05/19 09:25:21;;;;;;;0.38;0.20;;;;;;;17.45;51.86;100654.50;6132985;23;20013;-75
2021/05/19 09:27:53;;;;;;;2.15;0.40;;;;;;;17.17;52.02;100657.25;6159136;23;20009;-75
2021/05/19 09:30:33;;;;;;;0.40;0.20;;;;;;;16.85;50.98;100669.09;6132663;23;20032;-73
2021/05/19 09:33:16;;;;;;;3.75;0.30;;;;;;;16.42;51.87;100678.34;6134184;23;20016;-76
2021/05/19 09:35:46;;;;;;;1.70;0.20;;;;;;;16.20;53.11;100682.53;6157775;23;20008;-75
2021/05/19 09:38:29;;;;;;;0.93;0.28;;;;;;;16.30;54.29;100680.75;6158760;23;20001;-76
2021/05/19 09:41:17;;;;;;;0.22;0.10;;;;;;;16.67;54.34;100687.34;6160109;23;20016;-75
2021/05/19 09:43:54;;;;;;;;;;;;;;;;;;;;;
2021/05/19 09:46:33;;;;;;;1.20;0.20;;;;;;;17.87;51.97;100682.97;6157806;23;20501;-76
2021/05/19 09:49:33;;;;;;;0.73;0.10;;;;;;;18.43;50.52;100682.88;6160528;23;20005;-77
2021/05/19 09:52:16;;;;;;;0.75;0.43;;;;;;;18.37;49.59;100684.09;6094737;23;20025;-76
2021/05/19 09:54:43;;;;;;;1.20;0.30;;;;;;;17.95;49.08;100690.56;6150709;23;20408;-73
2021/05/19 09:57:12;;;;;;;1.77;0.38;;;;;;;18.26;50.27;100695.41;6155344;23;20005;-74
2021/05/19 09:59:49;;;;;;;0.45;0.25;;;;;;;18.96;47.28;100684.91;6153999;23;20089;-75
2021/05/19 10:02:17;;;;;;;0.40;0.20;;;;;;;19.70;46.14;100669.59;6127932;23;20017;-74
2021/05/19 10:04:49;;;;;;;0.20;0.10;;;;;;;20.90;46.20;100681.50;6079371;23;20017;-73
2021/05/19 10:07:19;;;;;;;0.20;0.10;;;;;;;21.87;43.47;100684.75;6129229;23;20036;-73
2021/05/19 10:09:45;;;;;;;0.10;0.10;;;;;;;22.71;40.64;100679.22;6106943;23;20025;-73
2021/05/19 10:12:13;;;;;;;0.30;0.10;;;;;;;23.33;42.09;100694.19;6155874;23;20009;-74
2021/05/19 10:14:41;;;;;;;0.20;0.10;;;;;;;24.59;39.28;100689.00;6122207;23;20033;-73
2021/05/19 10:17:09;;;;;;;0.10;0.03;;;;;;;25.45;36.59;100701.69;6126237;23;20413;-73
2021/05/19 10:19:39;;;;;;;0.30;0.10;;;;;;;26.28;35.90;100707.31;6096359;23;20329;-73
2021/05/19 10:22:10;;;;;;;0.30;0.20;;;;;;;26.49;31.33;100697.75;6120490;23;20088;-73
2021/05/19 10:27:56;;;;;;;0.30;0.10;;;;;;;28.33;31.50;100707.41;6117921;23;20072;-73
2021/05/19 10:30:54;;;;;;;0.17;0.03;;;;;;;27.37;28.91;100715.13;6124897;23;20429;-73
2021/05/19 10:33:37;;;;;;;0.28;0.10;;;;;;;26.64;30.69;100719.28;6121129;23;20026;-73
2021/05/19 10:36:42;;;;;;;0.08;0.08;;;;;;;27.54;31.95;100719.41;6097193;23;20032;-74
2021/05/19 10:39:10;;;;;;;0.40;0.03;;;;;;;28.64;31.63;100713.06;6060946;23;20062;-72
2021/05/19 10:41:45;;;;;;;0.35;0.10;;;;;;;29.84;30.22;100708.22;6115216;23;20452;-73
2021/05/19 10:44:15;;;;;;;1.00;0.00;;;;;;;30.79;28.57;100719.63;6122614;23;20002;-72
2021/05/19 10:47:09;;;;;;;1.77;0.10;;;;;;;30.58;24.77;100719.56;6094339;23;20089;-73
2021/05/19 10:50:01;;;;;;;0.32;0.13;;;;;;;29.38;25.96;100723.53;6122789;23;20073;-73
2021/05/19 10:57:48;;;;;;;0.10;0.10;;;;;;;25.86;29.50;100718.31;6124966;23;21012;-71
2021/05/19 11:00:25;;;;;;;0.00;0.00;;;;;;;26.48;28.93;100715.75;6125609;23;20077;-70
2021/05/19 11:03:04;;;;;;;0.10;0.00;;;;;;;27.12;26.93;100715.44;6077340;23;20017;-73
2021/05/19 11:05:38;;;;;;;0.68;0.10;;;;;;;27.56;27.11;100705.81;6123662;23;20413;-72
2021/05/19 11:08:06;;;;;;;0.13;0.08;;;;;;;27.77;26.86;100716.56;6120598;23;20073;-72
2021/05/19 11:10:55;;;;;;;0.03;0.03;;;;;;;29.11;28.13;100720.00;6127802;23;20068;-72
2021/05/19 11:13:23;;;;;;;0.10;0.10;;;;;;;30.61;26.56;100718.78;6132326;23;20020;-70
2021/05/19 11:16:13;;;;;;;0.20;0.10;;;;;;;31.88;26.13;100714.97;6128066;23;20045;-71
2021/05/19 11:21:14;;;;;;;0.13;0.10;;;;;;;32.37;20.07;100706.78;6092289;23;20720;-73
2021/05/19 11:23:39;;;;;;;0.20;0.10;;;;;;;29.63;21.28;100705.22;6123024;23;20005;-73
2021/05/19 11:26:09;;;;;;;0.20;0.05;;;;;;;27.62;24.41;100705.09;6122432;23;20068;-72
2021/05/19 11:28:34;;;;;;;5.25;0.10;;;;;;;28.20;27.23;100706.03;6125272;23;20017;-73
2021/05/19 11:31:10;;;;;;;0.85;0.10;;;;;;;30.20;26.37;100700.00;6074388;23;20426;-73
2021/05/19 11:33:54;;;;;;;0.03;0.00;;;;;;;32.10;24.22;100703.63;6127245;23;20024;-73
2021/05/19 11:36:44;;;;;;;0.17;0.10;;;;;;;32.33;23.31;100712.47;6093921;23;20001;-74
2021/05/19 11:39:38;;;;;;;0.17;0.10;;;;;;;31.55;21.01;100721.81;6094426;23;20006;-74
2021/05/19 11:42:23;;;;;;;0.40;0.10;;;;;;;29.95;22.88;100708.31;6096577;23;20021;-74
2021/05/19 11:44:54;;;;;;;0.20;0.10;;;;;;;29.50;23.36;100707.53;6098749;23;20026;-71
2021/05/19 11:47:40;;;;;;;0.10;0.10;;;;;;;29.73;23.01;100718.56;6124214;23;20012;-73
2021/05/19 11:50:08;;;;;;;1.00;0.20;;;;;;;29.90;22.68;100723.56;6127375;23;20006;-73
2021/05/19 11:52:38;;;;;;;0.20;0.10;;;;;;;29.77;22.49;100705.31;6122978;23;20005;-73
2021/05/19 11:55:04;;;;;;;0.30;0.10;;;;;;;29.91;22.03;100710.31;6095744;23;20081;-72
2021/05/19 11:57:30;;;;;;;2.75;0.10;;;;;;;30.21;22.25;100712.09;6125337;23;20005;-72
2021/05/19 11:59:56;;;;;;;0.55;0.13;;;;;;;30.46;21.85;100717.88;6121715;23;20010;-74
2021/05/19 12:02:22;;;;;;;0.20;0.10;;;;;;;30.09;22.33;100725.31;6125425;23;20017;-73
2021/05/19 12:04:47;;;;;;;0.17;0.10;;;;;;;28.62;21.97;100727.50;6116221;23;20354;-73
2021/05/19 12:07:14;;;;;;;2.38;0.10;;;;;;;27.97;23.92;100726.56;6079434;23;20012;-74
2021/05/19 12:09:43;;;;;;;4.68;0.10;;;;;;;29.00;24.35;100722.72;6123294;23;20006;-72
2021/05/19 12:12:16;;;;;;;0.10;0.10;;;;;;;29.98;22.54;100715.16;6097388;23;20270;-74